TimeEDT,TemperatureF,Dew PointF,Humidity,Sea Level PressureIn,VisibilityMPH,Wind Direction,Wind SpeedMPH,Gust SpeedMPH,PrecipitationIn,Events,Conditions,WindDirDegrees,DateUTC
12:58 AM,69.3,59.0,70,30.06,10.0,NW,12.7,-,N/A,,Clear,310,2013-05-08 04:58:00
1:58 AM,67.6,59.2,74,30.06,10.0,West,9.2,-,N/A,,Clear,280,2013-05-08 05:58:00
2:58 AM,66.4,59.5,79,30.04,10.0,West,6.9,-,N/A,,Clear,270,2013-05-08 06:58:00
3:58 AM,66.2,59.5,79,30.06,10.0,West,6.9,-,N/A,,Clear,280,2013-05-08 07:58:00
4:58 AM,64.9,59.5,83,30.06,10.0,West,5.8,-,N/A,,Clear,260,2013-05-08 08:58:00
5:58 AM,63.9,59.7,86,30.08,10.0,West,6.9,-,N/A,,Clear,260,2013-05-08 09:58:00
6:58 AM,64.0,60.1,87,30.09,10.0,WSW,6.9,-,N/A,,Clear,250,2013-05-08 10:58:00
7:58 AM,66.7,61.2,82,30.12,10.0,WSW,5.8,-,N/A,,Clear,250,2013-05-08 11:58:00
8:58 AM,69.4,61.5,76,30.14,10.0,WSW,5.8,-,N/A,,Clear,240,2013-05-08 12:58:00
9:58 AM,71.8,60.6,68,30.14,10.0,WNW,8.1,-,N/A,,Clear,290,2013-05-08 13:58:00
10:58 AM,74.8,59.0,58,30.14,10.0,West,8.1,-,N/A,,Clear,280,2013-05-08 14:58:00
11:58 AM,76.6,57.4,51,30.14,10.0,West,8.1,-,N/A,,Clear,270,2013-05-08 15:58:00
12:58 PM,78.8,57.4,48,30.14,10.0,WSW,8.1,-,N/A,,Partly Cloudy,250,2013-05-08 16:58:00
1:58 PM,81.0,57.0,44,30.12,10.0,West,9.2,-,N/A,,Partly Cloudy,270,2013-05-08 17:58:00
2:58 PM,80.4,56.7,44,30.11,10.0,WSW,13.8,-,N/A,,Partly Cloudy,240,2013-05-08 18:58:00
3:58 PM,81.9,55.9,41,30.09,10.0,West,8.1,-,N/A,,Clear,270,2013-05-08 19:58:00
4:58 PM,82.6,55.2,39,30.08,10.0,West,10.4,-,N/A,,Partly Cloudy,260,2013-05-08 20:58:00
5:58 PM,76.5,64.2,66,30.08,10.0,SE,12.7,-,N/A,,Partly Cloudy,140,2013-05-08 21:58:00
6:58 PM,75.6,64.2,68,30.08,10.0,SSE,12.7,-,N/A,,Clear,160,2013-05-08 22:58:00
7:58 PM,74.5,64.0,70,30.09,10.0,SSE,12.7,-,N/A,,Scattered Clouds,160,2013-05-08 23:58:00
8:58 PM,73.8,64.4,72,30.11,10.0,SSE,11.5,-,N/A,,Clear,160,2013-05-09 00:58:00
9:58 PM,74.1,64.6,72,30.12,10.0,South,6.9,-,N/A,,Mostly Cloudy,190,2013-05-09 01:58:00
10:58 PM,74.5,59.7,60,30.14,10.0,WSW,6.9,-,N/A,,Partly Cloudy,250,2013-05-09 02:58:00
11:58 PM,73.2,59.2,61,30.16,10.0,WNW,10.4,-,N/A,,Clear,300,2013-05-09 03:58:00